Time;durP1;ratioP1;P1;durP2;ratioP2;P2;SDS_P1;SDS_P2;PMS_P1;PMS_P2;Temp;Humidity;BMP_temperature;BMP_pressure;BME280_temperature;BME280_humidity;BME280_pressure;Samples;Min_cycle;Max_cycle;Signal;HPM_P1;HPM_P2
2021/01/17 00:01:41;;;;;;;116.57;55.40;;;1.40;99.90;;;;;;5080489;28;20134;-90
2021/01/17 00:04:06;;;;;;;136.02;60.15;;;1.40;99.90;;;;;;5082961;28;20528;-90
2021/01/17 00:06:33;;;;;;;116.10;55.78;;;1.40;99.90;;;;;;5102598;28;20028;-89
2021/01/17 00:08:59;;;;;;;140.60;62.28;;;1.40;99.90;;;;;;5084209;28;20020;-88
2021/01/17 00:11:26;;;;;;;139.93;62.50;;;1.50;99.90;;;;;;5080854;28;20415;-89
2021/01/17 00:13:52;;;;;;;136.38;60.47;;;1.50;99.90;;;;;;5080297;28;20126;-89
2021/01/17 00:16:18;;;;;;;109.60;53.70;;;1.40;99.90;;;;;;5078527;28;20051;-90
2021/01/17 00:18:46;;;;;;;155.25;65.10;;;1.50;99.90;;;;;;5079290;28;20393;-88
2021/01/17 00:21:12;;;;;;;124.68;57.15;;;1.50;99.90;;;;;;5097207;28;20058;-89
2021/01/17 00:23:37;;;;;;;151.45;67.32;;;1.50;99.90;;;;;;5062617;28;20024;-89
2021/01/17 00:26:03;;;;;;;130.10;60.10;;;1.50;99.90;;;;;;5079806;28;20028;-89
2021/01/17 00:28:29;;;;;;;143.57;60.80;;;1.50;99.90;;;;;;5079286;28;20024;-89
2021/01/17 00:30:55;;;;;;;139.82;63.53;;;1.50;99.90;;;;;;5079570;28;20114;-90
2021/01/17 00:33:20;;;;;;;114.10;54.60;;;1.50;99.90;;;;;;5062367;28;20469;-89
2021/01/17 00:35:46;;;;;;;128.02;58.97;;;1.50;99.90;;;;;;5078584;28;20362;-89
2021/01/17 00:38:13;;;;;;;113.28;54.85;;;1.50;99.90;;;;;;5062457;28;20090;-90
2021/01/17 00:40:40;;;;;;;130.05;57.97;;;1.60;99.90;;;;;;5062658;28;20036;-90
2021/01/17 00:43:06;;;;;;;108.32;51.08;;;1.50;99.90;;;;;;5063824;28;20032;-91
2021/01/17 00:45:32;;;;;;;141.95;62.10;;;1.60;99.90;;;;;;5070455;28;20100;-89
2021/01/17 00:48:03;;;;;;;125.75;57.63;;;1.60;99.90;;;;;;5082215;28;20389;-89
2021/01/17 00:50:29;;;;;;;125.43;58.55;;;1.60;99.90;;;;;;5079282;28;20061;-89
2021/01/17 00:52:56;;;;;;;133.40;61.22;;;1.70;99.90;;;;;;5062594;28;20024;-90
2021/01/17 00:55:22;;;;;;;127.72;58.40;;;1.60;99.90;;;;;;5062326;28;20024;-90
2021/01/17 00:57:48;;;;;;;138.02;62.17;;;1.50;99.90;;;;;;5097562;28;20490;-88
2021/01/17 01:00:19;;;;;;;122.40;55.90;;;1.60;99.90;;;;;;5096394;28;20054;-90
2021/01/17 01:02:48;;;;;;;122.43;56.03;;;1.60;99.90;;;;;;5078928;28;20373;-89
2021/01/17 01:05:14;;;;;;;137.50;60.15;;;1.50;99.90;;;;;;5061768;28;20109;-90
2021/01/17 01:07:39;;;;;;;136.25;60.33;;;1.50;99.90;;;;;;5078485;28;20148;-88
2021/01/17 01:10:07;;;;;;;118.25;56.05;;;1.50;99.90;;;;;;5061405;28;20028;-88
2021/01/17 01:12:33;;;;;;;132.82;59.03;;;1.60;99.90;;;;;;5078239;28;20024;-88
2021/01/17 01:14:59;;;;;;;130.38;57.83;;;1.50;99.90;;;;;;5078306;28;20020;-90
2021/01/17 01:17:25;;;;;;;114.30;53.80;;;1.60;99.90;;;;;;5061229;28;20036;-89
2021/01/17 01:19:52;;;;;;;114.28;55.83;;;1.60;99.90;;;;;;5096247;28;20089;-90
2021/01/17 01:22:17;;;;;;;133.65;61.03;;;1.70;99.90;;;;;;5044827;28;20059;-90
2021/01/17 01:24:43;;;;;;;120.45;56.00;;;1.70;99.90;;;;;;5096561;28;20067;-90
2021/01/17 01:27:11;;;;;;;108.20;52.63;;;1.70;99.90;;;;;;5061192;28;20043;-90
2021/01/17 01:29:40;;;;;;;136.45;61.22;;;1.70;99.90;;;;;;5060839;28;20130;-88
2021/01/17 01:32:06;;;;;;;131.05;60.78;;;1.70;99.90;;;;;;5078280;28;20028;-89
2021/01/17 01:34:32;;;;;;;110.53;53.88;;;1.70;99.90;;;;;;5061522;28;20458;-88
2021/01/17 01:36:58;;;;;;;107.35;51.92;;;1.80;99.90;;;;;;5074523;28;20055;-90
2021/01/17 01:39:24;;;;;;;123.22;57.85;;;1.70;99.90;;;;;;5075889;28;20039;-89
2021/01/17 01:41:51;;;;;;;109.72;54.28;;;1.70;99.90;;;;;;5077003;28;20066;-88
2021/01/17 01:44:17;;;;;;;102.30;51.13;;;1.70;99.90;;;;;;5060676;28;20454;-89
2021/01/17 01:46:43;;;;;;;128.93;59.17;;;1.70;99.90;;;;;;5071468;28;20043;-88
2021/01/17 01:49:09;;;;;;;109.32;53.50;;;1.70;99.90;;;;;;5078771;28;20028;-89
2021/01/17 01:51:37;;;;;;;119.57;57.15;;;1.80;99.90;;;;;;5074499;28;20031;-89
2021/01/17 01:54:05;;;;;;;153.25;64.72;;;1.80;99.90;;;;;;5058300;28;20028;-88
2021/01/17 01:56:31;;;;;;;113.13;54.25;;;1.90;99.90;;;;;;5075760;28;20044;-89
2021/01/17 01:58:57;;;;;;;106.55;53.38;;;1.80;99.90;;;;;;5075651;28;20040;-88
2021/01/17 02:01:23;;;;;;;136.93;62.97;;;1.70;99.90;;;;;;5057409;28;20033;-89
2021/01/17 02:03:51;;;;;;;97.53;51.92;;;1.70;99.90;;;;;;5073987;28;20074;-89
2021/01/17 02:06:21;;;;;;;107.95;54.53;;;1.80;99.90;;;;;;5073591;28;20051;-90
2021/01/17 02:09:22;;;;;;;104.60;52.38;;;1.90;99.90;;;;;;5057398;28;20037;-89
2021/01/17 02:12:00;;;;;;;143.82;66.07;;;1.90;99.90;;;;;;5073727;28;20017;-89
2021/01/17 02:14:35;;;;;;;128.45;58.90;;;1.80;99.90;;;;;;5074448;28;20020;-89
2021/01/17 02:17:12;;;;;;;153.68;68.53;;;1.80;99.90;;;;;;5073624;28;20029;-89
2021/01/17 02:20:05;;;;;;;103.57;52.38;;;1.80;99.90;;;;;;5073128;28;20086;-89
2021/01/17 02:22:43;;;;;;;99.70;50.83;;;1.90;99.90;;;;;;5073596;28;20028;-89
2021/01/17 02:25:09;;;;;;;108.65;52.58;;;2.00;99.90;;;;;;5074871;28;20032;-89
2021/01/17 02:27:37;;;;;;;163.10;69.05;;;2.00;99.90;;;;;;5074978;28;20032;-89
2021/01/17 02:30:08;;;;;;;148.65;63.10;;;2.00;99.90;;;;;;5075976;28;20016;-89
2021/01/17 02:32:37;;;;;;;123.07;59.60;;;1.90;99.90;;;;;;5058360;28;20131;-90
2021/01/17 02:35:04;;;;;;;107.53;53.47;;;1.90;99.90;;;;;;5076866;28;20024;-88
2021/01/17 02:37:37;;;;;;;111.53;54.95;;;2.00;99.90;;;;;;5075609;28;20143;-89
2021/01/17 02:40:04;;;;;;;122.00;58.55;;;2.10;99.90;;;;;;5078427;28;20054;-89
2021/01/17 02:42:31;;;;;;;101.15;52.58;;;2.20;99.90;;;;;;5075369;28;20033;-89
2021/01/17 02:44:59;;;;;;;125.50;57.80;;;2.10;99.90;;;;;;5075943;28;20035;-88
2021/01/17 02:47:27;;;;;;;118.78;57.30;;;2.10;99.90;;;;;;5060694;28;20032;-89
2021/01/17 02:49:53;;;;;;;129.43;57.40;;;2.10;99.90;;;;;;5062935;28;20028;-88
2021/01/17 02:52:28;;;;;;;105.65;52.50;;;2.20;99.90;;;;;;5082684;28;20020;-88
2021/01/17 02:54:56;;;;;;;;;;;2.40;99.90;;;;;;5085530;28;20092;-89
2021/01/17 02:57:26;;;;;;;94.68;49.75;;;2.40;99.90;;;;;;5096901;28;19920;-93
2021/01/17 02:59:57;;;;;;;111.68;55.22;;;2.30;99.90;;;;;;5097563;28;20034;-87
2021/01/17 03:02:27;;;;;;;132.57;59.45;;;2.20;99.90;;;;;;5097066;28;20023;-92
2021/01/17 03:04:57;;;;;;;115.80;55.10;;;2.20;99.90;;;;;;5096788;28;20020;-89
2021/01/17 03:07:24;;;;;;;109.00;52.47;;;2.10;99.90;;;;;;5095777;28;20044;-89
2021/01/17 03:09:50;;;;;;;102.53;51.88;;;2.30;99.90;;;;;;5074085;28;20060;-89
2021/01/17 03:12:16;;;;;;;89.72;48.28;;;2.50;99.90;;;;;;5081154;28;20025;-89
2021/01/17 03:14:45;;;;;;;152.90;65.20;;;2.50;99.90;;;;;;5095879;28;20040;-88
2021/01/17 03:17:11;;;;;;;92.68;48.90;;;2.60;99.90;;;;;;5097138;28;20024;-89
2021/01/17 03:19:37;;;;;;;91.70;49.70;;;2.50;99.90;;;;;;5096548;28;20039;-90
2021/01/17 03:22:03;;;;;;;106.07;54.55;;;2.70;99.90;;;;;;5080255;28;20024;-90
2021/01/17 03:24:28;;;;;;;88.68;48.60;;;2.50;99.90;;;;;;5095759;28;20021;-90
2021/01/17 03:26:54;;;;;;;91.22;50.00;;;2.60;99.90;;;;;;5094743;28;20519;-89
2021/01/17 03:29:20;;;;;;;141.40;63.38;;;2.70;99.90;;;;;;5075601;28;20032;-89
2021/01/17 03:31:53;;;;;;;135.85;62.20;;;2.70;99.90;;;;;;5075246;28;20031;-89
2021/01/17 03:34:18;;;;;;;84.72;45.00;;;2.70;99.90;;;;;;5075668;28;20029;-89
2021/01/17 03:36:44;;;;;;;86.57;48.22;;;2.70;99.90;;;;;;5057506;28;20064;-89
2021/01/17 03:39:10;;;;;;;89.20;45.72;;;2.70;99.90;;;;;;5074255;28;20385;-89
2021/01/17 03:41:35;;;;;;;124.60;58.42;;;2.70;99.90;;;;;;5074203;28;20040;-88
2021/01/17 03:44:01;;;;;;;132.68;59.70;;;2.90;99.90;;;;;;5073801;28;20035;-89
2021/01/17 03:46:30;;;;;;;104.82;51.38;;;2.70;99.90;;;;;;5072099;28;20107;-90
2021/01/17 03:48:56;;;;;;;89.22;46.83;;;2.80;99.90;;;;;;5040421;28;20064;-89
2021/01/17 03:51:21;;;;;;;82.55;44.40;;;3.00;99.90;;;;;;5074490;28;20053;-89
2021/01/17 03:53:47;;;;;;;76.97;45.38;;;3.00;99.90;;;;;;5072607;28;20463;-88
2021/01/17 03:56:13;;;;;;;78.25;45.10;;;3.10;99.90;;;;;;5038936;28;20032;-89
2021/01/17 03:58:38;;;;;;;91.40;46.67;;;3.10;99.90;;;;;;5038510;28;20071;-90
2021/01/17 04:01:04;;;;;;;85.93;45.65;;;3.10;99.90;;;;;;5055395;28;20036;-88
2021/01/17 04:03:30;;;;;;;80.95;43.78;;;3.20;99.90;;;;;;5054894;28;20039;-90
2021/01/17 04:05:56;;;;;;;79.32;42.92;;;3.20;99.90;;;;;;5038070;28;20087;-89
2021/01/17 04:08:22;;;;;;;78.72;43.65;;;3.30;99.90;;;;;;5054833;28;20116;-88
2021/01/17 04:10:48;;;;;;;76.32;42.95;;;3.30;99.90;;;;;;5054717;28;20056;-88
2021/01/17 04:13:13;;;;;;;71.20;41.75;;;3.30;99.90;;;;;;5037764;28;20037;-89
2021/01/17 04:15:39;;;;;;;79.57;44.55;;;3.40;99.90;;;;;;5037895;28;20124;-88
2021/01/17 04:18:04;;;;;;;78.35;42.15;;;3.30;99.90;;;;;;5071471;28;20036;-88
2021/01/17 04:20:30;;;;;;;75.38;42.75;;;3.40;99.90;;;;;;5054424;28;20397;-90
2021/01/17 04:23:01;;;;;;;97.22;48.25;;;3.40;99.90;;;;;;5038355;28;20028;-89
2021/01/17 04:25:30;;;;;;;81.80;41.50;;;3.40;99.90;;;;;;5040067;28;20029;-90
2021/01/17 04:27:56;;;;;;;78.22;38.85;;;3.50;99.90;;;;;;5073125;28;20028;-89
2021/01/17 04:30:22;;;;;;;93.68;43.40;;;3.40;99.90;;;;;;5074087;28;20095;-89
2021/01/17 04:32:49;;;;;;;76.93;35.25;;;3.40;99.90;;;;;;5042561;28;20483;-89
2021/01/17 04:35:15;;;;;;;57.28;22.95;;;3.50;99.90;;;;;;5059256;28;20036;-89
2021/01/17 04:37:41;;;;;;;66.93;22.38;;;3.70;99.90;;;;;;5059193;28;20144;-89
2021/01/17 04:40:07;;;;;;;64.03;18.05;;;3.80;99.90;;;;;;5076623;28;20048;-89
2021/01/17 04:42:37;;;;;;;62.47;14.25;;;4.10;99.90;;;;;;5071199;28;20032;-93
2021/01/17 04:45:06;;;;;;;62.75;12.68;;;4.20;99.90;;;;;;5082614;28;20013;-87
2021/01/17 04:47:35;;;;;;;68.55;11.18;;;4.50;99.90;;;;;;5082322;28;20046;-92
2021/01/17 04:50:04;;;;;;;51.08;10.93;;;4.70;99.90;;;;;;5094661;28;20039;-89
2021/01/17 04:52:40;;;;;;;57.03;11.98;;;4.80;99.90;;;;;;5074961;28;20020;-88
2021/01/17 04:55:10;;;;;;;60.28;11.60;;;4.90;99.90;;;;;;5075179;28;20020;-88
2021/01/17 04:58:14;;;;;;;67.07;11.65;;;4.90;99.90;;;;;;5074711;28;20035;-89
2021/01/17 05:00:42;;;;;;;50.03;9.13;;;5.10;99.90;;;;;;5074641;28;20489;-89
2021/01/17 05:03:32;;;;;;;63.10;10.80;;;5.10;99.90;;;;;;5074939;28;20043;-89
2021/01/17 05:06:27;;;;;;;53.72;9.38;;;5.00;99.90;;;;;;5074221;28;20036;-89
2021/01/17 05:09:02;;;;;;;50.57;10.00;;;5.20;99.90;;;;;;5074479;28;20025;-89
2021/01/17 05:11:39;;;;;;;53.22;8.75;;;5.30;99.90;;;;;;5075512;28;20024;-89
2021/01/17 05:14:13;;;;;;;54.40;10.20;;;5.30;99.90;;;;;;5074607;28;20028;-88
2021/01/17 05:16:40;;;;;;;61.60;11.48;;;5.40;99.90;;;;;;5074130;28;20055;-89
2021/01/17 05:19:10;;;;;;;51.33;9.88;;;5.40;99.90;;;;;;5073945;28;20055;-88
2021/01/17 05:21:39;;;;;;;64.97;10.73;;;5.50;99.90;;;;;;5058089;28;20048;-90
2021/01/17 05:24:11;;;;;;;67.85;11.73;;;5.50;99.90;;;;;;5074717;28;20032;-88
2021/01/17 05:26:40;;;;;;;54.92;10.50;;;5.50;99.90;;;;;;5074545;28;20025;-89
2021/01/17 05:29:06;;;;;;;57.35;10.00;;;5.50;99.90;;;;;;5075259;28;20025;-88
2021/01/17 05:31:33;;;;;;;52.08;8.93;;;5.60;99.90;;;;;;5075145;28;20401;-88
2021/01/17 05:33:59;;;;;;;62.40;10.90;;;5.60;99.90;;;;;;5074106;28;20059;-89
2021/01/17 05:36:25;;;;;;;46.60;9.82;;;5.60;99.90;;;;;;5075740;28;20115;-88
2021/01/17 05:39:02;;;;;;;62.88;10.20;;;5.70;99.90;;;;;;5096079;28;20145;-88
2021/01/17 05:41:28;;;;;;;51.83;10.77;;;5.70;99.90;;;;;;5079717;28;20120;-88
2021/01/17 05:43:54;;;;;;;58.10;10.00;;;5.70;99.90;;;;;;5087859;28;20060;-89
2021/01/17 05:46:22;;;;;;;46.78;9.93;;;5.70;99.90;;;;;;5064573;28;20032;-89
2021/01/17 05:48:48;;;;;;;62.50;11.52;;;5.70;99.90;;;;;;5062429;28;20466;-89
2021/01/17 05:51:27;;;;;;;71.88;10.70;;;5.80;99.90;;;;;;5045380;28;20032;-89
2021/01/17 05:53:55;;;;;;;56.15;9.30;;;5.80;99.90;;;;;;5060860;28;20031;-89
2021/01/17 05:56:21;;;;;;;58.28;9.25;;;5.80;99.90;;;;;;5060030;28;20028;-88
2021/01/17 05:58:47;;;;;;;60.20;9.88;;;5.80;99.90;;;;;;5043816;28;20028;-88
2021/01/17 06:01:16;;;;;;;63.35;10.52;;;5.80;99.90;;;;;;5060252;28;20135;-89
2021/01/17 06:03:49;;;;;;;56.63;10.05;;;5.90;99.90;;;;;;5076561;28;20056;-89
2021/01/17 06:06:25;;;;;;;60.90;9.40;;;5.90;99.90;;;;;;5076807;28;20529;-89
2021/01/17 06:08:55;;;;;;;50.70;9.90;;;5.90;99.90;;;;;;5043530;28;20036;-89
2021/01/17 06:11:22;;;;;;;50.45;10.13;;;5.90;99.90;;;;;;5095209;28;20032;-89
2021/01/17 06:14:02;;;;;;;50.55;9.63;;;6.00;99.90;;;;;;5076610;28;20031;-89
2021/01/17 06:16:39;;;;;;;56.00;10.18;;;6.10;99.90;;;;;;5076957;28;20081;-89
2021/01/17 06:19:06;;;;;;;53.33;10.27;;;6.10;99.90;;;;;;5062664;28;20085;-89
2021/01/17 06:21:34;;;;;;;64.07;9.90;;;6.00;99.90;;;;;;5096610;28;20058;-89
2021/01/17 06:24:04;;;;;;;54.90;9.18;;;6.00;99.90;;;;;;5094577;28;20046;-89
2021/01/17 06:26:32;;;;;;;51.15;9.43;;;6.00;99.90;;;;;;5076701;28;20081;-89
2021/01/17 06:28:59;;;;;;;62.45;9.57;;;6.10;99.90;;;;;;5043044;28;20081;-88
2021/01/17 06:31:29;;;;;;;57.15;9.40;;;6.10;99.90;;;;;;5060086;28;20078;-90
2021/01/17 06:34:04;;;;;;;59.17;9.10;;;6.10;99.90;;;;;;5093931;28;20032;-89
2021/01/17 06:36:30;;;;;;;55.28;9.35;;;6.10;99.90;;;;;;5075675;28;20024;-89
2021/01/17 06:38:56;;;;;;;61.03;11.07;;;6.10;99.90;;;;;;5076170;28;20028;-89
2021/01/17 06:41:39;;;;;;;53.63;10.35;;;6.10;99.90;;;;;;5059510;28;20115;-89
2021/01/17 06:44:11;;;;;;;60.03;11.07;;;6.10;99.90;;;;;;5094284;28;20051;-88
2021/01/17 06:46:45;;;;;;;46.45;9.80;;;6.10;99.90;;;;;;5059701;28;20081;-88
2021/01/17 06:49:19;;;;;;;55.42;9.38;;;6.10;99.90;;;;;;5059559;28;20058;-89
2021/01/17 06:51:46;;;;;;;50.10;9.53;;;6.10;99.90;;;;;;5075811;28;20094;-90
2021/01/17 06:54:13;;;;;;;57.58;9.52;;;6.10;99.90;;;;;;5059335;28;20029;-89
2021/01/17 06:56:41;;;;;;;57.20;11.55;;;6.10;99.90;;;;;;5075740;28;20032;-89
2021/01/17 06:59:07;;;;;;;58.63;10.82;;;6.10;99.90;;;;;;5075631;28;20070;-89
2021/01/17 07:01:42;;;;;;;40.50;9.07;;;6.10;99.90;;;;;;5078046;28;20024;-88
2021/01/17 07:04:17;;;;;;;51.78;9.20;;;6.10;99.90;;;;;;5076418;28;20028;-89
2021/01/17 07:07:17;;;;;;;43.20;8.23;;;6.10;99.90;;;;;;5075280;28;20035;-92
2021/01/17 07:10:05;;;;;;;47.80;9.35;;;6.10;99.90;;;;;;5075579;28;20085;-91
2021/01/17 07:13:09;;;;;;;47.85;10.25;;;6.10;99.90;;;;;;5069230;28;20496;-88
2021/01/17 07:15:39;;;;;;;52.53;9.48;;;6.10;99.90;;;;;;5043293;28;20466;-88
2021/01/17 07:18:06;;;;;;;45.60;8.63;;;6.10;99.90;;;;;;5092054;28;20047;-89
2021/01/17 07:20:43;;;;;;;52.97;9.77;;;6.10;99.90;;;;;;5075356;28;20016;-90
2021/01/17 07:23:10;;;;;;;45.35;8.02;;;6.20;99.90;;;;;;5075052;28;20038;-89
2021/01/17 07:25:38;;;;;;;61.30;10.10;;;6.10;99.90;;;;;;5075157;28;20073;-90
2021/01/17 07:28:19;;;;;;;51.22;9.18;;;6.20;99.90;;;;;;5075009;28;20064;-90
2021/01/17 07:30:51;;;;;;;57.17;9.95;;;6.30;99.90;;;;;;5075555;28;20056;-92
2021/01/17 07:33:31;;;;;;;48.67;9.10;;;6.20;99.90;;;;;;5075500;28;20542;-91
2021/01/17 07:36:03;;;;;;;57.55;10.30;;;6.10;99.90;;;;;;5075398;28;20038;-90
2021/01/17 07:38:35;;;;;;;59.83;10.45;;;6.10;99.90;;;;;;5074892;28;20055;-90
2021/01/17 07:41:06;;;;;;;50.28;10.20;;;6.10;99.90;;;;;;5094266;28;20024;-90
2021/01/17 07:43:38;;;;;;;58.60;11.82;;;6.10;99.90;;;;;;5076335;28;20097;-88
2021/01/17 07:46:09;;;;;;;60.85;11.88;;;6.10;99.90;;;;;;5076295;28;20039;-89
2021/01/17 07:48:35;;;;;;;54.55;10.45;;;6.00;99.90;;;;;;5075246;28;20020;-93
2021/01/17 07:51:03;;;;;;;51.13;10.07;;;6.00;99.90;;;;;;5093114;28;20024;-90
2021/01/17 07:53:38;;;;;;;60.80;10.25;;;6.00;99.90;;;;;;5076480;28;20124;-89
2021/01/17 07:56:27;;;;;;;52.78;8.85;;;6.00;99.90;;;;;;5075184;28;20035;-90
2021/01/17 07:58:58;;;;;;;62.25;11.80;;;6.00;99.90;;;;;;5093079;28;20024;-90
2021/01/17 08:01:35;;;;;;;55.08;11.98;;;6.10;99.90;;;;;;5077917;28;20059;-89
2021/01/17 08:04:04;;;;;;;49.63;9.88;;;6.10;99.90;;;;;;5079828;28;20028;-89
2021/01/17 08:06:35;;;;;;;61.15;9.68;;;6.20;99.90;;;;;;5086825;28;20032;-89
2021/01/17 08:09:11;;;;;;;67.30;11.77;;;6.10;99.90;;;;;;5081886;28;20039;-89
2021/01/17 08:11:57;;;;;;;60.53;10.23;;;6.20;99.90;;;;;;5077863;28;20031;-90
2021/01/17 08:14:32;;;;;;;61.78;11.18;;;6.10;99.90;;;;;;5077968;28;20028;-89
2021/01/17 08:17:10;;;;;;;43.15;10.73;;;6.00;99.90;;;;;;5093816;28;20461;-89
2021/01/17 08:19:46;;;;;;;54.00;9.32;;;6.10;99.90;;;;;;5078114;28;20361;-90
2021/01/17 08:22:21;;;;;;;53.25;9.95;;;6.10;99.90;;;;;;5081521;28;20028;-90
2021/01/17 08:25:08;;;;;;;48.97;9.05;;;6.10;99.90;;;;;;5100098;28;20024;-91
2021/01/17 08:27:39;;;;;;;41.03;9.00;;;6.20;99.90;;;;;;5077981;28;20054;-91
2021/01/17 08:30:07;;;;;;;44.78;8.75;;;6.20;99.90;;;;;;5079671;28;20366;-91
2021/01/17 08:32:49;;;;;;;33.55;7.55;;;6.10;99.90;;;;;;5100489;28;20024;-90
2021/01/17 08:35:39;;;;;;;41.75;8.40;;;6.20;99.90;;;;;;5090598;28;20040;-91
2021/01/17 08:38:16;;;;;;;35.20;6.35;;;6.20;99.90;;;;;;5078038;28;20135;-91
2021/01/17 08:40:53;;;;;;;40.95;8.50;;;6.20;99.90;;;;;;5062831;28;20045;-91
2021/01/17 08:43:33;;;;;;;42.83;8.40;;;6.20;99.90;;;;;;5072777;28;20032;-91
2021/01/17 08:45:59;;;;;;;33.47;7.35;;;6.30;99.90;;;;;;5087156;28;20052;-91
2021/01/17 08:48:26;;;;;;;35.95;6.43;;;6.30;99.90;;;;;;5084538;28;20032;-91
2021/01/17 08:50:54;;;;;;;32.08;6.55;;;6.30;99.90;;;;;;5059531;28;20124;-90
2021/01/17 08:53:35;;;;;;;39.08;8.23;;;6.30;99.90;;;;;;5076940;28;20053;-91
2021/01/17 08:56:19;;;;;;;39.30;8.27;;;6.30;99.90;;;;;;5083313;28;20052;-89
2021/01/17 08:58:49;;;;;;;36.90;7.85;;;6.30;99.90;;;;;;5081610;28;20032;-90
2021/01/17 09:01:17;;;;;;;44.38;8.68;;;6.40;99.90;;;;;;5077991;28;20066;-89
2021/01/17 09:03:43;;;;;;;49.40;10.32;;;6.30;99.90;;;;;;5060010;28;20517;-89
2021/01/17 09:06:11;;;;;;;38.40;8.35;;;6.40;99.90;;;;;;5075849;28;20033;-90
2021/01/17 09:08:41;;;;;;;46.20;9.13;;;6.40;99.90;;;;;;5076186;28;20077;-89
2021/01/17 09:11:29;;;;;;;52.28;9.27;;;6.30;99.90;;;;;;5076964;28;20021;-89
2021/01/17 09:14:27;;;;;;;42.83;8.63;;;6.40;99.90;;;;;;5077727;28;20025;-90
2021/01/17 09:17:01;;;;;;;56.00;9.35;;;6.40;99.90;;;;;;5076980;28;20398;-90
2021/01/17 09:19:31;;;;;;;48.35;9.45;;;6.40;99.90;;;;;;5078786;28;20079;-88
2021/01/17 09:21:58;;;;;;;47.10;9.75;;;6.50;99.90;;;;;;5078145;28;20031;-90
2021/01/17 09:24:29;;;;;;;45.40;9.43;;;6.60;99.90;;;;;;5059337;28;20047;-89
2021/01/17 09:26:57;;;;;;;54.83;8.95;;;6.70;99.90;;;;;;5059346;28;20103;-90
2021/01/17 09:29:57;;;;;;;45.72;8.30;;;6.80;99.90;;;;;;5075852;28;20040;-93
2021/01/17 09:32:23;;;;;;;46.85;9.18;;;6.80;99.90;;;;;;5080239;28;20075;-91
2021/01/17 09:34:50;;;;;;;40.47;8.68;;;6.80;99.90;;;;;;5083981;28;20024;-92
2021/01/17 09:37:21;;;;;;;42.58;8.45;;;6.80;99.90;;;;;;5091147;28;20062;-92
2021/01/17 09:39:55;;;;;;;53.55;8.38;;;6.70;99.90;;;;;;5075180;28;20036;-90
2021/01/17 09:42:24;;;;;;;29.50;6.93;;;6.70;99.90;;;;;;5085383;28;20413;-92
2021/01/17 09:44:55;;;;;;;36.78;8.45;;;6.70;99.90;;;;;;5078223;28;20024;-90
2021/01/17 09:47:32;;;;;;;25.20;5.43;;;6.60;99.90;;;;;;5077108;28;20039;-92
2021/01/17 09:50:09;;;;;;;32.63;5.47;;;6.60;99.90;;;;;;5078217;28;20130;-91
2021/01/17 09:52:40;;;;;;;23.15;5.93;;;6.60;99.90;;;;;;5078077;28;20032;-89
2021/01/17 09:55:08;;;;;;;27.13;5.82;;;6.60;99.90;;;;;;5061120;28;20068;-90
2021/01/17 09:57:37;;;;;;;22.25;5.65;;;6.60;99.90;;;;;;5060864;28;20040;-89
2021/01/17 10:00:22;;;;;;;34.15;5.50;;;6.70;99.90;;;;;;5078954;28;20142;-89
2021/01/17 10:02:48;;;;;;;23.33;4.63;;;6.70;99.90;;;;;;5080967;28;20032;-91
2021/01/17 10:05:33;;;;;;;30.27;6.05;;;6.60;99.90;;;;;;5061170;28;20173;-88
2021/01/17 10:08:12;;;;;;;32.78;6.03;;;6.70;99.90;;;;;;5077898;28;20031;-91
2021/01/17 10:10:40;;;;;;;33.22;7.38;;;6.70;99.90;;;;;;5061534;28;20039;-90
2021/01/17 10:13:07;;;;;;;31.17;6.50;;;6.70;99.90;;;;;;5077391;28;20028;-89
2021/01/17 10:15:36;;;;;;;32.55;6.25;;;6.80;99.90;;;;;;5077371;28;20032;-89
2021/01/17 10:18:03;;;;;;;28.80;5.90;;;6.80;99.90;;;;;;5094992;28;20458;-89
2021/01/17 10:20:37;;;;;;;31.48;6.57;;;6.90;99.90;;;;;;5059913;28;20032;-89
2021/01/17 10:23:06;;;;;;;27.30;5.77;;;6.80;99.90;;;;;;5076720;28;20522;-88
2021/01/17 10:25:34;;;;;;;27.90;6.82;;;6.90;99.90;;;;;;5076970;28;20028;-89
2021/01/17 10:28:04;;;;;;;36.70;6.03;;;6.90;99.90;;;;;;5063341;28;20032;-88
2021/01/17 10:30:32;;;;;;;28.88;5.47;;;6.90;99.90;;;;;;5087974;28;20091;-89
2021/01/17 10:33:09;;;;;;;36.38;7.15;;;6.90;99.90;;;;;;5080020;28;20056;-89
2021/01/17 10:35:38;;;;;;;40.67;6.97;;;6.90;99.90;;;;;;5095324;28;20077;-90
2021/01/17 10:38:09;;;;;;;35.25;6.43;;;7.00;99.90;;;;;;5094600;28;20460;-87
2021/01/17 10:40:36;;;;;;;37.65;7.18;;;7.00;99.90;;;;;;5060043;28;20100;-88
2021/01/17 10:43:06;;;;;;;37.30;6.70;;;7.00;99.90;;;;;;5082040;28;20044;-89
2021/01/17 10:45:36;;;;;;;39.97;7.47;;;7.00;99.90;;;;;;5088211;28;20084;-88
2021/01/17 10:48:12;;;;;;;37.75;7.50;;;7.00;99.90;;;;;;5088623;28;20043;-88
2021/01/17 10:50:51;;;;;;;35.63;6.80;;;7.10;99.90;;;;;;5076970;28;20500;-89
2021/01/17 10:53:35;;;;;;;40.15;7.28;;;7.20;99.90;;;;;;5077229;28;20373;-89
2021/01/17 10:56:02;;;;;;;42.85;8.32;;;7.30;99.90;;;;;;5075273;28;20150;-90
2021/01/17 10:58:42;;;;;;;33.17;6.70;;;7.20;99.90;;;;;;5094891;28;20459;-89
2021/01/17 11:01:07;;;;;;;50.03;8.25;;;7.20;99.90;;;;;;5095138;28;20081;-89
2021/01/17 11:03:35;;;;;;;39.17;7.43;;;7.20;99.90;;;;;;5077334;28;20020;-89
2021/01/17 11:06:23;;;;;;;48.63;11.32;;;7.40;99.90;;;;;;5078473;28;20323;-89
2021/01/17 11:08:54;;;;;;;45.90;9.57;;;7.40;99.90;;;;;;5077906;28;20024;-88
2021/01/17 11:11:30;;;;;;;44.13;9.05;;;7.50;99.90;;;;;;5063414;28;20055;-91
2021/01/17 11:14:21;;;;;;;50.47;8.98;;;7.40;99.90;;;;;;5082586;28;20098;-92
2021/01/17 11:16:58;;;;;;;36.28;6.72;;;7.50;99.90;;;;;;5083045;28;20028;-89
2021/01/17 11:19:33;;;;;;;37.03;8.63;;;7.50;99.90;;;;;;5084724;28;20052;-90
2021/01/17 11:22:00;;;;;;;43.72;7.53;;;7.40;99.90;;;;;;5086804;28;20024;-90
2021/01/17 11:24:38;;;;;;;45.53;7.55;;;7.50;99.90;;;;;;5106552;28;20023;-89
2021/01/17 11:27:15;;;;;;;33.75;7.38;;;7.50;99.90;;;;;;5084598;28;20034;-89
2021/01/17 11:29:42;;;;;;;34.85;6.80;;;7.50;99.90;;;;;;5097553;28;20028;-89
2021/01/17 11:32:10;;;;;;;38.08;7.30;;;7.50;99.90;;;;;;5063001;28;20079;-91
2021/01/17 11:34:38;;;;;;;30.70;6.35;;;7.40;99.90;;;;;;5066547;28;20332;-91
2021/01/17 11:37:06;;;;;;;36.22;8.15;;;7.40;99.90;;;;;;5098932;28;20036;-89
2021/01/17 11:39:33;;;;;;;43.55;7.78;;;7.40;99.90;;;;;;5082064;28;20048;-90
2021/01/17 11:42:01;;;;;;;33.60;7.45;;;7.40;99.90;;;;;;5094742;28;20095;-89
2021/01/17 11:44:33;;;;;;;52.72;8.45;;;7.40;99.90;;;;;;5090610;28;20099;-90
2021/01/17 11:47:01;;;;;;;42.47;8.95;;;7.40;99.90;;;;;;5099736;28;20016;-89
2021/01/17 11:49:28;;;;;;;47.55;9.60;;;7.40;99.90;;;;;;5099637;28;20049;-91
2021/01/17 11:51:55;;;;;;;42.85;8.95;;;7.40;99.90;;;;;;5083350;28;20088;-88
2021/01/17 11:54:25;;;;;;;32.53;7.60;;;7.50;99.90;;;;;;5087203;28;20024;-90
2021/01/17 11:57:04;;;;;;;43.47;9.48;;;7.60;99.90;;;;;;5087758;28;20036;-89
2021/01/17 11:59:33;;;;;;;46.40;8.02;;;7.60;99.90;;;;;;5103833;28;20051;-89
2021/01/17 12:02:27;;;;;;;49.25;8.05;;;7.60;99.90;;;;;;5103720;28;20009;-88
2021/01/17 12:04:59;;;;;;;47.45;7.30;;;7.80;99.90;;;;;;5092745;28;20093;-88
2021/01/17 12:07:25;;;;;;;49.55;7.95;;;8.00;99.90;;;;;;5084883;28;20074;-89
2021/01/17 12:10:10;;;;;;;38.20;7.20;;;8.10;99.90;;;;;;5085056;28;20024;-88
2021/01/17 12:12:37;;;;;;;38.42;7.88;;;8.10;99.90;;;;;;5101583;28;20020;-88
2021/01/17 12:15:08;;;;;;;40.78;8.10;;;8.10;99.90;;;;;;5101165;28;20449;-90
2021/01/17 12:17:37;;;;;;;39.53;8.00;;;8.00;99.90;;;;;;5080371;28;20578;-90
2021/01/17 12:20:03;;;;;;;36.90;7.07;;;7.90;99.90;;;;;;5079347;28;20461;-90
2021/01/17 12:22:32;;;;;;;38.03;7.70;;;7.90;99.90;;;;;;5097874;28;20021;-90
2021/01/17 12:24:58;;;;;;;48.63;10.57;;;7.80;99.90;;;;;;5067115;28;20080;-88
2021/01/17 12:27:23;;;;;;;48.28;9.00;;;7.80;99.90;;;;;;5070009;28;20048;-92
2021/01/17 12:29:49;;;;;;;56.40;9.25;;;7.90;99.90;;;;;;5079187;28;20027;-88
2021/01/17 12:32:17;;;;;;;39.90;9.25;;;7.80;99.90;;;;;;5061963;28;20024;-89
2021/01/17 12:34:43;;;;;;;38.65;7.93;;;7.90;99.90;;;;;;5078528;28;20016;-91
2021/01/17 12:37:10;;;;;;;57.08;10.07;;;7.90;99.90;;;;;;5078019;28;20028;-90
2021/01/17 12:39:36;;;;;;;41.97;7.60;;;8.00;99.90;;;;;;5077388;28;20136;-89
2021/01/17 12:42:02;;;;;;;40.05;7.63;;;8.00;99.90;;;;;;5078645;28;20024;-90
2021/01/17 12:44:32;;;;;;;43.78;8.52;;;8.00;99.90;;;;;;5078677;28;20031;-90
2021/01/17 12:46:57;;;;;;;46.35;8.40;;;8.10;99.90;;;;;;5062405;28;20031;-89
2021/01/17 12:49:23;;;;;;;42.75;7.93;;;8.00;99.90;;;;;;5078816;28;20077;-90
2021/01/17 12:51:50;;;;;;;32.25;7.82;;;8.00;99.90;;;;;;5078405;28;20038;-89
2021/01/17 12:54:16;;;;;;;40.38;7.38;;;8.00;99.90;;;;;;5081250;28;20055;-90
2021/01/17 12:56:42;;;;;;;35.38;8.30;;;8.00;99.90;;;;;;5083119;28;20020;-88